createdAt,value
2022-08-29T00:00:17.858Z,21.63
2022-08-29T00:02:46.950Z,21.62
2022-08-29T00:05:14.557Z,21.63
2022-08-29T00:07:42.168Z,21.63
2022-08-29T00:10:09.938Z,21.63
2022-08-29T00:12:39.006Z,21.62
2022-08-29T00:15:08.050Z,21.61
2022-08-29T00:17:35.692Z,21.61
2022-08-29T00:20:04.237Z,21.62
2022-08-29T00:22:31.961Z,21.61
2022-08-29T00:25:03.174Z,21.61
2022-08-29T00:27:30.808Z,21.61
2022-08-29T00:29:59.829Z,21.61
2022-08-29T00:32:34.558Z,21.61
2022-08-29T00:35:02.269Z,21.60
2022-08-29T00:37:29.889Z,21.60
2022-08-29T00:39:57.596Z,21.60
2022-08-29T00:42:25.428Z,21.60
2022-08-29T00:44:53.130Z,21.60
2022-08-29T00:47:32.951Z,21.60
2022-08-29T00:50:00.570Z,21.58
2022-08-29T00:52:30.520Z,21.59
2022-08-29T00:54:58.254Z,21.57
2022-08-29T00:57:26.066Z,21.57
2022-08-29T00:59:53.829Z,21.57
2022-08-29T01:02:22.857Z,21.56
2022-08-29T01:04:50.512Z,21.56
2022-08-29T01:07:18.085Z,21.56
2022-08-29T01:09:46.988Z,21.55
2022-08-29T01:12:16.371Z,21.55
2022-08-29T01:14:47.854Z,21.54
2022-08-29T01:17:17.955Z,21.53
2022-08-29T01:19:50.207Z,21.53
2022-08-29T01:22:35.624Z,21.53
2022-08-29T01:25:05.467Z,21.52
2022-08-29T01:27:34.291Z,21.53
2022-08-29T01:30:01.912Z,21.52
2022-08-29T01:32:29.720Z,21.51
2022-08-29T01:34:57.376Z,21.50
2022-08-29T01:37:24.977Z,21.49
2022-08-29T01:39:52.590Z,21.49
2022-08-29T01:42:22.749Z,21.49
2022-08-29T01:44:50.803Z,21.48
2022-08-29T01:47:20.272Z,21.48
2022-08-29T01:49:47.971Z,21.48
2022-08-29T01:52:15.569Z,21.49
2022-08-29T01:54:45.975Z,21.47
2022-08-29T01:57:13.847Z,21.47
2022-08-29T01:59:42.981Z,21.46
2022-08-29T02:02:12.717Z,21.45
2022-08-29T02:04:40.775Z,21.46
2022-08-29T02:07:12.520Z,21.44
2022-08-29T02:09:40.584Z,21.45
2022-08-29T02:12:13.711Z,21.43
2022-08-29T02:14:42.729Z,21.43
2022-08-29T02:17:10.381Z,21.42
2022-08-29T02:19:38.805Z,21.41
2022-08-29T02:22:06.578Z,21.42
2022-08-29T02:24:34.289Z,21.40
2022-08-29T02:27:01.903Z,21.41
2022-08-29T02:29:34.259Z,21.38
2022-08-29T02:32:07.212Z,21.39
2022-08-29T02:34:35.891Z,21.39
2022-08-29T02:37:04.688Z,21.39
2022-08-29T02:39:33.889Z,21.39
2022-08-29T02:42:01.543Z,21.39
2022-08-29T02:44:29.245Z,21.39
2022-08-29T02:46:56.918Z,21.38
2022-08-29T02:49:26.017Z,21.36
2022-08-29T02:51:53.621Z,21.37
2022-08-29T02:54:21.232Z,21.36
2022-08-29T02:56:48.961Z,21.35
2022-08-29T02:59:16.576Z,21.36
2022-08-29T03:01:44.250Z,21.36
2022-08-29T03:04:11.892Z,21.35
2022-08-29T03:06:41.044Z,21.34
2022-08-29T03:09:08.644Z,21.34
2022-08-29T03:11:36.270Z,21.32
2022-08-29T03:14:03.893Z,21.32
2022-08-29T03:16:31.920Z,21.32
2022-08-29T03:18:59.566Z,21.30
2022-08-29T03:21:27.616Z,21.31
2022-08-29T03:23:56.717Z,21.31
2022-08-29T03:26:24.641Z,21.29
2022-08-29T03:28:52.271Z,21.30
2022-08-29T03:31:19.940Z,21.30
2022-08-29T03:33:47.514Z,21.29
2022-08-29T03:36:15.154Z,21.27
2022-08-29T03:38:43.341Z,21.28
2022-08-29T03:41:12.644Z,21.29
2022-08-29T03:43:40.300Z,21.28
2022-08-29T03:46:08.001Z,21.29
2022-08-29T03:48:35.683Z,21.28
2022-08-29T03:51:03.874Z,21.29
2022-08-29T03:53:32.857Z,21.29
2022-08-29T03:56:00.466Z,21.29
2022-08-29T03:58:29.578Z,21.28
2022-08-29T04:00:57.184Z,21.27
2022-08-29T04:03:24.924Z,21.27
2022-08-29T04:05:58.797Z,21.27
2022-08-29T04:08:26.367Z,21.26
2022-08-29T04:10:53.985Z,21.25
2022-08-29T04:13:21.878Z,21.25
2022-08-29T04:15:50.991Z,21.24
2022-08-29T04:18:21.661Z,21.28
2022-08-29T04:20:50.181Z,21.28
2022-08-29T04:23:17.856Z,21.30
2022-08-29T04:25:45.491Z,21.31
2022-08-29T04:28:13.980Z,21.29
2022-08-29T04:30:51.241Z,21.28
2022-08-29T04:33:22.721Z,21.28
2022-08-29T04:35:50.826Z,21.20
2022-08-29T04:38:18.513Z,21.13
2022-08-29T04:40:46.124Z,21.10
2022-08-29T04:43:13.813Z,21.00
2022-08-29T04:45:41.430Z,20.93
2022-08-29T04:48:10.654Z,20.97
2022-08-29T04:50:40.196Z,20.89
2022-08-29T04:53:07.790Z,20.83
2022-08-29T04:55:35.383Z,20.78
2022-08-29T04:58:04.133Z,20.75
2022-08-29T05:00:31.775Z,20.73
2022-08-29T05:03:00.097Z,20.69
2022-08-29T05:05:27.848Z,20.68
2022-08-29T05:07:56.823Z,20.73
2022-08-29T05:10:26.279Z,20.79
2022-08-29T05:12:54.072Z,20.80
2022-08-29T05:15:21.954Z,20.75
2022-08-29T05:17:49.588Z,20.74
2022-08-29T05:20:17.815Z,20.75
2022-08-29T05:22:45.437Z,20.75
2022-08-29T05:25:18.189Z,20.65
2022-08-29T05:27:46.210Z,20.61
2022-08-29T05:30:14.009Z,20.59
2022-08-29T05:32:41.617Z,20.59
2022-08-29T05:35:09.654Z,20.65
2022-08-29T05:37:37.379Z,20.71
2022-08-29T05:40:05.460Z,20.72
2022-08-29T05:42:34.561Z,20.67
2022-08-29T05:45:03.620Z,20.61
2022-08-29T05:47:31.774Z,20.56
2022-08-29T05:49:59.740Z,20.54
2022-08-29T05:52:27.584Z,20.54
2022-08-29T05:54:55.197Z,20.53
2022-08-29T05:57:23.727Z,20.52
2022-08-29T05:59:53.525Z,20.52
2022-08-29T06:02:21.406Z,20.53
2022-08-29T06:04:49.212Z,20.55
2022-08-29T06:07:16.866Z,20.58
2022-08-29T06:09:44.549Z,20.57
2022-08-29T06:12:12.880Z,20.57
2022-08-29T06:14:40.502Z,20.55
2022-08-29T06:17:09.514Z,20.57
2022-08-29T06:19:37.173Z,20.56
2022-08-29T06:22:06.092Z,20.57
2022-08-29T06:24:37.918Z,20.59
2022-08-29T06:27:05.570Z,20.58
2022-08-29T06:29:42.890Z,20.59
2022-08-29T06:32:12.297Z,20.61
2022-08-29T06:34:39.912Z,20.63
2022-08-29T06:37:07.516Z,20.63
2022-08-29T06:39:35.136Z,20.65
2022-08-29T06:42:02.759Z,20.69
2022-08-29T06:44:31.246Z,20.72
2022-08-29T06:46:59.139Z,20.74
2022-08-29T06:49:28.513Z,20.75
2022-08-29T06:51:58.369Z,20.76
2022-08-29T06:54:28.095Z,20.77
2022-08-29T06:56:56.062Z,20.78
2022-08-29T06:59:23.710Z,20.80
2022-08-29T07:01:51.491Z,20.81
2022-08-29T07:04:20.545Z,20.83
2022-08-29T07:06:50.166Z,20.85
2022-08-29T07:09:17.872Z,20.87
2022-08-29T07:11:45.612Z,20.89
2022-08-29T07:14:13.521Z,20.92
2022-08-29T07:16:41.406Z,20.94
2022-08-29T07:19:10.077Z,20.95
2022-08-29T07:21:37.828Z,20.97
2022-08-29T07:24:07.026Z,20.99
2022-08-29T07:26:36.341Z,21.01
2022-08-29T07:29:06.973Z,21.04
2022-08-29T07:31:34.684Z,21.04
2022-08-29T07:34:03.274Z,21.06
2022-08-29T07:36:31.317Z,21.08
2022-08-29T07:38:58.913Z,21.10
2022-08-29T07:41:28.535Z,21.11
2022-08-29T07:43:56.151Z,21.11
2022-08-29T07:46:25.447Z,21.12
2022-08-29T07:48:53.580Z,21.14
2022-08-29T07:51:22.913Z,21.14
2022-08-29T07:53:50.716Z,21.16
2022-08-29T07:56:20.296Z,21.17
2022-08-29T07:58:49.394Z,21.18
2022-08-29T08:01:21.217Z,21.18
2022-08-29T08:03:49.929Z,21.19
2022-08-29T08:06:18.336Z,21.21
2022-08-29T08:08:46.093Z,21.21
2022-08-29T08:11:13.730Z,21.21
2022-08-29T08:13:41.418Z,21.21
2022-08-29T08:16:11.637Z,21.23
2022-08-29T08:18:40.254Z,21.22
2022-08-29T08:21:07.908Z,21.24
2022-08-29T08:23:36.159Z,21.24
2022-08-29T08:26:03.877Z,21.25
2022-08-29T08:28:31.573Z,21.25
2022-08-29T08:31:05.054Z,21.26
2022-08-29T08:33:35.495Z,21.28
2022-08-29T08:36:03.928Z,21.28
2022-08-29T08:38:31.883Z,21.28
2022-08-29T08:41:02.097Z,21.28
2022-08-29T08:43:33.497Z,21.29
2022-08-29T08:46:01.231Z,21.28
2022-08-29T08:48:34.389Z,21.29
2022-08-29T08:51:04.733Z,21.30
2022-08-29T08:53:34.419Z,21.31
2022-08-29T08:56:04.753Z,21.32
2022-08-29T08:58:33.669Z,21.31
2022-08-29T09:01:03.632Z,21.32
2022-08-29T09:03:52.644Z,21.34
2022-08-29T09:06:28.464Z,21.34
2022-08-29T09:08:59.262Z,21.33
2022-08-29T09:11:29.825Z,21.35
2022-08-29T09:14:01.049Z,21.35
2022-08-29T09:16:31.504Z,21.35
2022-08-29T09:19:01.817Z,21.36
2022-08-29T09:21:46.705Z,21.36
2022-08-29T09:24:18.313Z,21.39
2022-08-29T09:26:45.917Z,21.39
2022-08-29T09:29:13.941Z,21.39
2022-08-29T09:31:42.024Z,21.41
2022-08-29T09:34:11.926Z,21.42
2022-08-29T09:36:47.660Z,21.43
2022-08-29T09:39:22.797Z,21.43
2022-08-29T09:41:52.222Z,21.43
2022-08-29T09:44:22.197Z,21.44
2022-08-29T09:47:04.814Z,21.47
2022-08-29T09:49:33.161Z,21.46
2022-08-29T09:52:09.761Z,21.47
2022-08-29T09:54:37.416Z,21.47
2022-08-29T09:57:10.906Z,21.48
2022-08-29T09:59:40.701Z,21.47
2022-08-29T10:02:30.985Z,21.48
2022-08-29T10:05:01.317Z,21.49
2022-08-29T10:07:31.181Z,21.49
2022-08-29T10:10:01.514Z,21.50
2022-08-29T10:12:41.782Z,21.50
2022-08-29T10:15:23.449Z,21.52
2022-08-29T10:18:19.036Z,21.52
2022-08-29T10:20:52.396Z,21.52
2022-08-29T10:23:25.444Z,21.53
2022-08-29T10:25:53.264Z,21.55
2022-08-29T10:28:23.566Z,21.56
2022-08-29T10:30:54.010Z,21.55
2022-08-29T10:33:32.054Z,21.55
2022-08-29T10:36:01.732Z,21.56
2022-08-29T10:38:40.827Z,21.55
2022-08-29T10:41:12.496Z,21.57
2022-08-29T10:43:40.578Z,21.57
2022-08-29T10:46:16.403Z,21.57
2022-08-29T10:48:48.944Z,21.57
2022-08-29T10:51:20.525Z,21.60
2022-08-29T10:53:51.897Z,21.60
2022-08-29T10:56:21.731Z,21.61
2022-08-29T10:58:56.882Z,21.63
2022-08-29T11:01:26.462Z,21.64
2022-08-29T11:03:59.643Z,21.63
2022-08-29T11:06:30.204Z,21.63
2022-08-29T11:09:03.366Z,21.64
2022-08-29T11:11:31.172Z,21.62
2022-08-29T11:14:05.417Z,21.63
2022-08-29T11:16:35.658Z,21.62
2022-08-29T11:19:06.640Z,21.63
2022-08-29T11:21:36.798Z,21.63
2022-08-29T11:24:06.198Z,21.62
2022-08-29T11:26:42.625Z,21.62
2022-08-29T11:29:18.342Z,21.62
2022-08-29T11:31:50.510Z,21.61
2022-08-29T11:34:46.469Z,21.60
2022-08-29T11:37:35.537Z,21.61
2022-08-29T11:40:08.369Z,21.61
2022-08-29T11:42:52.773Z,21.60
2022-08-29T11:45:25.065Z,21.61
2022-08-29T11:47:59.325Z,21.62
2022-08-29T11:50:32.826Z,21.61
2022-08-29T11:53:05.770Z,21.61
2022-08-29T11:55:36.293Z,21.61
2022-08-29T11:58:09.823Z,21.60
2022-08-29T12:00:47.216Z,21.61
2022-08-29T12:03:45.465Z,21.62
2022-08-29T12:06:26.702Z,21.62
2022-08-29T12:09:00.656Z,21.62
2022-08-29T12:12:14.986Z,21.62
2022-08-29T12:14:43.283Z,21.62
2022-08-29T12:17:12.338Z,21.63
2022-08-29T12:19:51.886Z,21.63
2022-08-29T12:22:59.596Z,21.63
2022-08-29T12:25:46.155Z,21.64
2022-08-29T12:28:32.143Z,21.63
2022-08-29T12:31:15.479Z,21.63
2022-08-29T12:33:55.304Z,21.63
2022-08-29T12:36:31.076Z,21.63
2022-08-29T12:39:10.527Z,21.64
2022-08-29T12:41:49.701Z,21.63
2022-08-29T12:44:21.613Z,21.64
2022-08-29T12:46:51.332Z,21.64
2022-08-29T12:49:21.052Z,21.65
2022-08-29T12:51:49.822Z,21.65
2022-08-29T12:54:29.445Z,21.65
2022-08-29T12:56:57.746Z,21.65
2022-08-29T12:59:29.091Z,21.64
2022-08-29T13:01:58.148Z,21.65
2022-08-29T13:04:31.945Z,21.66
2022-08-29T13:07:00.982Z,21.65
2022-08-29T13:09:29.444Z,21.65
2022-08-29T13:12:15.153Z,21.65
2022-08-29T13:14:52.380Z,21.66
2022-08-29T13:17:21.113Z,21.65
2022-08-29T13:20:25.777Z,21.66
2022-08-29T13:23:05.180Z,21.66
2022-08-29T13:25:33.722Z,21.66
2022-08-29T13:28:02.082Z,21.66
2022-08-29T13:30:31.108Z,21.67
2022-08-29T13:32:58.812Z,21.67
2022-08-29T13:35:31.505Z,21.66
2022-08-29T13:38:11.324Z,21.66
2022-08-29T13:40:43.583Z,21.67
2022-08-29T13:43:27.126Z,21.66
2022-08-29T13:46:09.702Z,21.67
2022-08-29T13:48:39.409Z,21.67
2022-08-29T13:51:07.335Z,21.67
2022-08-29T13:53:35.138Z,21.66
2022-08-29T13:56:03.145Z,21.67
2022-08-29T13:58:32.175Z,21.67
2022-08-29T14:00:59.912Z,21.66
2022-08-29T14:03:29.766Z,21.66
2022-08-29T14:05:58.177Z,21.67
2022-08-29T14:08:25.929Z,21.67
2022-08-29T14:10:53.557Z,21.67
2022-08-29T14:13:21.174Z,21.68
2022-08-29T14:15:49.050Z,21.67
2022-08-29T14:18:17.026Z,21.69
2022-08-29T14:20:46.000Z,21.69
2022-08-29T14:23:13.825Z,21.68
2022-08-29T14:25:41.480Z,21.71
2022-08-29T14:28:09.433Z,21.70
2022-08-29T14:30:40.450Z,21.70
2022-08-29T14:33:20.127Z,21.70
2022-08-29T14:35:49.274Z,21.70
2022-08-29T14:38:17.258Z,21.70
2022-08-29T14:40:45.213Z,21.70
2022-08-29T14:43:13.805Z,21.69
2022-08-29T14:45:41.442Z,21.70
2022-08-29T14:48:09.073Z,21.72
2022-08-29T14:50:36.717Z,21.70
2022-08-29T14:53:05.740Z,21.70
2022-08-29T14:55:33.639Z,21.70
2022-08-29T14:58:01.284Z,21.70
2022-08-29T15:00:29.866Z,21.70
2022-08-29T15:02:57.742Z,21.70
2022-08-29T15:05:25.384Z,21.71
2022-08-29T15:07:53.066Z,21.70
2022-08-29T15:10:23.748Z,21.70
2022-08-29T15:12:51.410Z,21.70
2022-08-29T15:15:20.623Z,21.71
2022-08-29T15:17:48.339Z,21.71
2022-08-29T15:20:35.516Z,21.72
2022-08-29T15:23:03.858Z,21.72
2022-08-29T15:25:32.901Z,21.72
2022-08-29T15:28:00.541Z,21.71
2022-08-29T15:30:28.229Z,21.71
2022-08-29T15:32:55.896Z,21.70
2022-08-29T15:35:23.548Z,21.71
2022-08-29T15:37:51.267Z,21.71
2022-08-29T15:40:19.421Z,21.70
2022-08-29T15:42:48.649Z,21.71
2022-08-29T15:45:16.477Z,21.71
2022-08-29T15:47:46.122Z,21.70
2022-08-29T15:50:14.424Z,21.70
2022-08-29T15:52:42.091Z,21.70
2022-08-29T15:55:10.005Z,21.70
2022-08-29T15:57:40.257Z,21.70
2022-08-29T16:00:30.158Z,21.68
2022-08-29T16:03:00.257Z,21.69
2022-08-29T16:05:28.464Z,21.70
2022-08-29T16:07:56.219Z,21.71
2022-08-29T16:10:23.897Z,21.70
2022-08-29T16:12:51.636Z,21.68
2022-08-29T16:15:19.277Z,21.68
2022-08-29T16:17:48.897Z,21.69
2022-08-29T16:20:16.574Z,21.70
2022-08-29T16:22:44.314Z,21.70
2022-08-29T16:25:12.737Z,21.70
2022-08-29T16:27:40.400Z,21.70
2022-08-29T16:30:10.375Z,21.69
2022-08-29T16:32:38.224Z,21.70
2022-08-29T16:35:08.517Z,21.70
2022-08-29T16:37:36.213Z,21.68
2022-08-29T16:40:05.232Z,21.69
2022-08-29T16:42:33.861Z,21.70
2022-08-29T16:45:01.444Z,21.68
2022-08-29T16:47:29.037Z,21.69
2022-08-29T16:49:56.669Z,21.69
2022-08-29T16:52:25.664Z,21.70
2022-08-29T16:54:53.831Z,21.68
2022-08-29T16:57:21.782Z,21.69
2022-08-29T16:59:49.453Z,21.69
2022-08-29T17:02:17.164Z,21.70
2022-08-29T17:04:46.523Z,21.69
2022-08-29T17:07:14.289Z,21.69
2022-08-29T17:09:42.153Z,21.68
2022-08-29T17:12:09.138Z,21.67
2022-08-29T17:14:36.525Z,21.70
2022-08-29T17:17:04.272Z,21.68
2022-08-29T17:19:33.467Z,21.68
2022-08-29T17:22:01.652Z,21.68
2022-08-29T17:24:29.346Z,21.69
2022-08-29T17:26:58.380Z,21.68
2022-08-29T17:29:26.081Z,21.68
2022-08-29T17:31:53.906Z,21.69
2022-08-29T17:34:21.721Z,21.68
2022-08-29T17:36:49.687Z,21.69
2022-08-29T17:39:17.378Z,21.69
2022-08-29T17:41:50.465Z,21.68
2022-08-29T17:44:20.134Z,21.69
2022-08-29T17:46:47.765Z,21.68
2022-08-29T17:49:15.390Z,21.68
2022-08-29T17:51:43.162Z,21.68
2022-08-29T17:54:12.571Z,21.68
2022-08-29T17:56:44.793Z,21.68
2022-08-29T17:59:12.795Z,21.67
2022-08-29T18:01:41.833Z,21.68
2022-08-29T18:04:09.642Z,21.68
2022-08-29T18:06:37.370Z,21.68
2022-08-29T18:09:05.314Z,21.68
2022-08-29T18:11:33.002Z,21.68
2022-08-29T18:14:01.246Z,21.68
2022-08-29T18:16:29.198Z,21.69
2022-08-29T18:18:58.334Z,21.69
2022-08-29T18:21:26.045Z,21.68
2022-08-29T18:23:53.720Z,21.69
2022-08-29T18:26:21.354Z,21.68
2022-08-29T18:28:49.059Z,21.70
2022-08-29T18:31:18.652Z,21.69
2022-08-29T18:34:00.045Z,21.70
2022-08-29T18:36:30.231Z,21.68
2022-08-29T18:38:58.152Z,21.70
2022-08-29T18:41:25.832Z,21.69
2022-08-29T18:43:53.627Z,21.68
2022-08-29T18:46:21.361Z,21.68
2022-08-29T18:48:49.256Z,21.69
2022-08-29T18:51:16.869Z,21.68
2022-08-29T18:53:45.963Z,21.68
2022-08-29T18:56:13.611Z,21.68
2022-08-29T18:58:44.290Z,21.69
2022-08-29T19:01:12.843Z,21.69
2022-08-29T19:03:41.604Z,21.68
2022-08-29T19:06:10.251Z,21.68
2022-08-29T19:08:38.453Z,21.68
2022-08-29T19:11:08.018Z,21.68
2022-08-29T19:13:36.432Z,21.67
2022-08-29T19:16:04.854Z,21.67
2022-08-29T19:18:32.872Z,21.67
2022-08-29T19:21:02.406Z,21.67
2022-08-29T19:23:30.276Z,21.66
2022-08-29T19:25:58.087Z,21.66
2022-08-29T19:28:27.523Z,21.67
2022-08-29T19:30:55.393Z,21.66
2022-08-29T19:33:23.612Z,21.66
2022-08-29T19:35:53.524Z,21.66
2022-08-29T19:38:21.921Z,21.66
2022-08-29T19:40:52.243Z,21.65
2022-08-29T19:43:20.742Z,21.65
2022-08-29T19:45:49.808Z,21.65
2022-08-29T19:48:19.294Z,21.65
2022-08-29T19:50:47.804Z,21.65
2022-08-29T19:53:16.768Z,21.64
2022-08-29T19:55:52.721Z,21.64
2022-08-29T19:58:22.642Z,21.64
2022-08-29T20:00:58.001Z,21.64
2022-08-29T20:03:27.565Z,21.62
2022-08-29T20:05:55.548Z,21.63
2022-08-29T20:08:23.604Z,21.61
2022-08-29T20:10:53.412Z,21.63
2022-08-29T20:13:21.097Z,21.63
2022-08-29T20:15:49.806Z,21.63
2022-08-29T20:18:19.728Z,21.63
2022-08-29T20:20:47.841Z,21.63
2022-08-29T20:23:17.310Z,21.63
2022-08-29T20:25:45.723Z,21.61
2022-08-29T20:28:15.615Z,21.62
2022-08-29T20:30:43.793Z,21.62
2022-08-29T20:33:11.525Z,21.62
2022-08-29T20:35:58.785Z,21.62
2022-08-29T20:38:27.090Z,21.62
2022-08-29T20:40:54.896Z,21.63
2022-08-29T20:43:22.586Z,21.62
2022-08-29T20:45:50.766Z,21.62
2022-08-29T20:48:18.632Z,21.61
2022-08-29T20:50:47.753Z,21.62
2022-08-29T20:53:31.914Z,21.62
2022-08-29T20:56:00.727Z,21.62
2022-08-29T20:58:30.096Z,21.62
2022-08-29T21:00:58.017Z,21.62
2022-08-29T21:03:43.168Z,21.61
2022-08-29T21:06:12.463Z,21.61
2022-08-29T21:08:41.046Z,21.61
2022-08-29T21:11:08.969Z,21.61
2022-08-29T21:13:41.529Z,21.61
2022-08-29T21:16:09.325Z,21.61
2022-08-29T21:18:37.121Z,21.61
2022-08-29T21:21:04.788Z,21.61
2022-08-29T21:23:34.191Z,21.60
2022-08-29T21:26:02.061Z,21.60
2022-08-29T21:28:32.757Z,21.60
2022-08-29T21:31:04.396Z,21.59
2022-08-29T21:33:33.477Z,21.59
2022-08-29T21:36:01.674Z,21.60
2022-08-29T21:38:29.505Z,21.58
2022-08-29T21:40:59.025Z,21.59
2022-08-29T21:43:26.852Z,21.58
2022-08-29T21:45:54.700Z,21.59
2022-08-29T21:48:22.406Z,21.58
2022-08-29T21:50:54.965Z,21.58
2022-08-29T21:53:22.733Z,21.57
2022-08-29T21:55:50.450Z,21.56
2022-08-29T21:58:20.266Z,21.57
2022-08-29T22:00:49.186Z,21.57
2022-08-29T22:03:17.183Z,21.56
2022-08-29T22:05:45.194Z,21.56
2022-08-29T22:08:14.104Z,21.56
2022-08-29T22:10:42.244Z,21.56
2022-08-29T22:13:10.126Z,21.55
2022-08-29T22:15:57.031Z,21.53
2022-08-29T22:18:24.910Z,21.53
2022-08-29T22:20:55.545Z,21.51
2022-08-29T22:23:24.339Z,21.52
2022-08-29T22:25:52.482Z,21.51
2022-08-29T22:28:20.143Z,21.51
2022-08-29T22:30:49.343Z,21.51
2022-08-29T22:33:17.047Z,21.51
2022-08-29T22:35:45.585Z,21.50
2022-08-29T22:38:13.336Z,21.49
2022-08-29T22:40:41.193Z,21.49
2022-08-29T22:43:09.221Z,21.49
2022-08-29T22:45:36.882Z,21.48
2022-08-29T22:48:06.250Z,21.47
2022-08-29T22:50:34.164Z,21.47
2022-08-29T22:53:02.120Z,21.47
2022-08-29T22:57:57.275Z,21.46
2022-08-29T23:00:26.410Z,21.46
2022-08-29T23:02:54.352Z,21.46
2022-08-29T23:05:24.144Z,21.45
2022-08-29T23:07:51.959Z,21.46
2022-08-29T23:10:21.861Z,21.45
2022-08-29T23:12:49.661Z,21.44
2022-08-29T23:15:18.259Z,21.45
2022-08-29T23:17:46.107Z,21.42
2022-08-29T23:20:14.193Z,21.43
2022-08-29T23:22:43.321Z,21.43
2022-08-29T23:25:12.038Z,21.42
2022-08-29T23:27:39.885Z,21.41
2022-08-29T23:30:09.089Z,21.42
2022-08-29T23:32:36.728Z,21.42
2022-08-29T23:35:05.605Z,21.40
2022-08-29T23:37:33.375Z,21.41
2022-08-29T23:40:02.521Z,21.41
2022-08-29T23:42:30.675Z,21.41
2022-08-29T23:44:58.469Z,21.39
2022-08-29T23:47:26.097Z,21.39
2022-08-29T23:49:53.713Z,21.38
2022-08-29T23:52:21.343Z,21.38
2022-08-29T23:54:49.065Z,21.38
2022-08-29T23:57:18.180Z,21.38
